METAR Data
IDs: Format: Raw Decoded Include TAF

Data at: 1453 UTC 25 Jan 2020

METAR for:KALO (Waterloo Rgnl, IA, US)
Text:KALO 251354Z 29008G16KT 7SM OVC009 M01/M03 A2994 RMK AO2 SLP148 T10111033
Temperature: -1.1°C ( 30°F)
Dewpoint: -3.3°C ( 26°F) [RH = 85%]
Pressure (altimeter):29.94 inches Hg (1014.0 mb) [Sea level pressure: 1014.8 mb]
Winds:from the WNW (290 degrees) at 9 MPH (8 knots; 4.1 m/s) gusting to 18 MPH (16 knots; 8.2 m/s)
Visibility: 7 sm ( 11 km)
Ceiling:900 feet AGL
Clouds: overcast cloud deck at 900 feet AGL